createdAt,value
2019-02-17T00:02:26.726Z,99.90
2019-02-17T00:04:58.324Z,99.90
2019-02-17T00:07:29.460Z,99.90
2019-02-17T00:10:00.812Z,99.90
2019-02-17T00:12:32.760Z,99.90
2019-02-17T00:15:04.222Z,99.90
2019-02-17T00:17:35.388Z,99.90
2019-02-17T00:20:19.414Z,99.90
2019-02-17T00:22:50.520Z,99.90
2019-02-17T00:25:22.028Z,99.90
2019-02-17T00:27:53.120Z,99.90
2019-02-17T00:30:24.628Z,99.90
2019-02-17T00:32:55.807Z,99.90
2019-02-17T00:35:27.119Z,99.90
2019-02-17T00:37:58.278Z,99.90
2019-02-17T00:40:29.809Z,99.90
2019-02-17T00:43:01.074Z,99.90
2019-02-17T00:45:32.603Z,99.90
2019-02-17T00:48:03.737Z,99.90
2019-02-17T00:50:35.228Z,99.90
2019-02-17T00:53:06.361Z,99.90
2019-02-17T00:55:37.810Z,99.90
2019-02-17T00:58:08.891Z,99.90
2019-02-17T01:00:40.311Z,99.90
2019-02-17T01:03:11.490Z,99.90
2019-02-17T01:05:43.618Z,99.90
2019-02-17T01:08:14.784Z,99.90
2019-02-17T01:10:46.223Z,99.90
2019-02-17T01:13:17.335Z,99.90
2019-02-17T01:15:48.820Z,99.90
2019-02-17T01:18:19.897Z,99.90
2019-02-17T01:20:51.313Z,99.90
2019-02-17T01:23:22.465Z,99.90
2019-02-17T01:25:54.063Z,99.90
2019-02-17T01:28:25.193Z,99.90
2019-02-17T01:30:56.593Z,99.90
2019-02-17T01:33:27.699Z,99.90
2019-02-17T01:35:58.981Z,99.90
2019-02-17T01:38:30.077Z,99.90
2019-02-17T01:41:01.595Z,99.90
2019-02-17T01:43:33.096Z,99.90
2019-02-17T01:46:04.494Z,99.90
2019-02-17T01:48:35.599Z,99.90
2019-02-17T01:51:07.599Z,99.90
2019-02-17T01:53:38.675Z,99.90
2019-02-17T01:56:09.911Z,99.90
2019-02-17T01:58:41.012Z,99.90
2019-02-17T02:01:12.386Z,99.90
2019-02-17T02:03:43.471Z,99.90
2019-02-17T02:06:14.869Z,99.90
2019-02-17T02:08:45.919Z,99.90
2019-02-17T02:11:17.257Z,99.90
2019-02-17T02:13:48.328Z,99.90
2019-02-17T02:16:19.531Z,99.90
2019-02-17T02:18:50.603Z,99.90
2019-02-17T02:21:21.837Z,99.90
2019-02-17T02:23:52.921Z,99.90
2019-02-17T02:26:24.080Z,99.90
2019-02-17T02:28:55.210Z,99.90
2019-02-17T02:31:26.622Z,99.90
2019-02-17T02:33:57.755Z,99.90
2019-02-17T02:36:29.107Z,99.90
2019-02-17T02:39:00.240Z,99.90
2019-02-17T02:41:34.802Z,99.90
2019-02-17T02:44:04.298Z,99.90
2019-02-17T02:46:35.557Z,99.90
2019-02-17T02:49:06.642Z,99.90
2019-02-17T02:51:37.975Z,99.90
2019-02-17T02:54:09.060Z,99.90
2019-02-17T02:56:40.428Z,99.90
2019-02-17T02:59:12.115Z,99.90
2019-02-17T03:01:43.428Z,99.90
2019-02-17T03:04:14.507Z,99.90
2019-02-17T03:06:55.448Z,99.90
2019-02-17T03:09:26.631Z,99.90
2019-02-17T03:11:57.939Z,99.90
2019-02-17T03:14:29.123Z,99.90
2019-02-17T03:17:00.898Z,99.90
2019-02-17T03:19:32.088Z,99.90
2019-02-17T03:22:03.363Z,99.90
2019-02-17T03:24:34.455Z,99.90
2019-02-17T03:27:05.847Z,99.90
2019-02-17T03:29:36.912Z,99.90
2019-02-17T03:32:08.056Z,99.90
2019-02-17T03:34:39.216Z,99.90
2019-02-17T03:37:10.597Z,99.90
2019-02-17T03:39:41.984Z,99.90
2019-02-17T03:42:13.535Z,99.90
2019-02-17T03:44:45.716Z,99.90
2019-02-17T03:47:17.066Z,99.90
2019-02-17T03:49:48.223Z,99.90
2019-02-17T03:52:19.648Z,99.90
2019-02-17T03:54:50.728Z,99.90
2019-02-17T03:57:22.253Z,99.90
2019-02-17T03:59:53.423Z,99.90
2019-02-17T04:02:24.734Z,99.90
2019-02-17T04:04:55.877Z,99.90
2019-02-17T04:07:27.432Z,99.90
2019-02-17T04:09:58.513Z,99.90
2019-02-17T04:12:29.969Z,99.90
2019-02-17T04:15:01.111Z,99.90
2019-02-17T04:17:32.521Z,99.90
2019-02-17T04:20:03.635Z,99.90
2019-02-17T04:22:35.063Z,99.90
2019-02-17T04:25:06.214Z,99.90
2019-02-17T04:27:37.607Z,99.90
2019-02-17T04:30:08.694Z,99.90
2019-02-17T04:32:39.997Z,99.90
2019-02-17T04:35:11.065Z,99.90
2019-02-17T04:37:42.393Z,99.90
2019-02-17T04:40:13.445Z,99.90
2019-02-17T04:42:44.787Z,99.90
2019-02-17T04:45:15.839Z,99.90
2019-02-17T04:47:47.179Z,99.90
2019-02-17T04:50:18.262Z,99.90
2019-02-17T04:52:49.669Z,99.90
2019-02-17T04:55:20.794Z,99.90
2019-02-17T04:57:53.308Z,99.90
2019-02-17T05:00:24.400Z,99.90
2019-02-17T05:02:55.798Z,99.90
2019-02-17T05:05:26.879Z,99.90
2019-02-17T05:07:58.362Z,99.90
2019-02-17T05:10:29.511Z,99.90
2019-02-17T05:13:00.883Z,99.90
2019-02-17T05:15:31.967Z,99.90
2019-02-17T05:18:03.374Z,99.90
2019-02-17T05:20:34.460Z,99.90
2019-02-17T05:23:05.872Z,99.90
2019-02-17T05:25:36.921Z,99.90
2019-02-17T05:28:08.157Z,99.90
2019-02-17T05:30:51.466Z,99.90
2019-02-17T05:33:12.179Z,99.90
2019-02-17T05:35:43.251Z,99.90
2019-02-17T05:38:14.579Z,99.90
2019-02-17T05:40:45.694Z,99.90
2019-02-17T05:43:17.069Z,99.90
2019-02-17T05:45:48.139Z,99.90
2019-02-17T05:48:19.463Z,99.90
2019-02-17T05:50:50.597Z,99.90
2019-02-17T05:53:21.836Z,99.90
2019-02-17T05:55:52.884Z,99.90
2019-02-17T05:58:24.063Z,99.90
2019-02-17T06:01:03.233Z,99.90
2019-02-17T06:03:28.176Z,99.90
2019-02-17T06:05:59.359Z,99.90
2019-02-17T06:08:30.772Z,99.90
2019-02-17T06:11:01.884Z,99.90
2019-02-17T06:13:33.262Z,99.90
2019-02-17T06:16:04.408Z,99.90
2019-02-17T06:18:35.793Z,99.90
2019-02-17T06:21:06.918Z,99.90
2019-02-17T06:23:38.126Z,99.90
2019-02-17T06:26:09.299Z,99.90
2019-02-17T06:28:40.633Z,99.90
2019-02-17T06:31:14.672Z,99.90
2019-02-17T06:33:45.294Z,99.90
2019-02-17T06:36:16.475Z,99.90
2019-02-17T06:38:47.890Z,99.90
2019-02-17T06:41:18.945Z,99.90
2019-02-17T06:43:50.393Z,99.90
2019-02-17T06:46:26.862Z,99.90
2019-02-17T06:48:58.082Z,99.90
2019-02-17T06:51:29.276Z,99.90
2019-02-17T06:54:00.651Z,99.90
2019-02-17T06:56:53.564Z,99.90
2019-02-17T06:59:25.341Z,99.90
2019-02-17T07:01:56.570Z,99.90
2019-02-17T07:04:49.964Z,99.90
2019-02-17T07:07:21.112Z,99.90
2019-02-17T07:09:52.276Z,99.90
2019-02-17T07:12:23.390Z,99.90
2019-02-17T07:14:54.709Z,99.90
2019-02-17T07:17:25.790Z,99.90
2019-02-17T07:19:57.193Z,99.90
2019-02-17T07:22:28.306Z,99.90
2019-02-17T07:24:59.472Z,99.90
2019-02-17T07:27:30.566Z,99.90
2019-02-17T07:30:01.823Z,99.90
2019-02-17T07:32:33.256Z,99.90
2019-02-17T07:35:04.621Z,99.90
2019-02-17T07:37:35.757Z,99.90
2019-02-17T07:40:07.368Z,99.90
2019-02-17T07:42:38.485Z,99.90
2019-02-17T07:45:09.882Z,99.90
2019-02-17T07:47:41.055Z,99.90
2019-02-17T07:50:12.372Z,99.90
2019-02-17T07:52:43.500Z,99.90
2019-02-17T07:55:14.869Z,99.90
2019-02-17T07:57:45.993Z,99.90
2019-02-17T08:00:18.282Z,99.90
2019-02-17T08:02:49.673Z,99.90
2019-02-17T08:05:21.507Z,99.90
2019-02-17T08:07:52.608Z,99.90
2019-02-17T08:10:23.864Z,99.90
2019-02-17T08:12:54.923Z,99.90
2019-02-17T08:15:26.326Z,99.90
2019-02-17T08:17:57.447Z,99.90
2019-02-17T08:20:28.988Z,99.90
2019-02-17T08:23:00.096Z,99.90
2019-02-17T08:25:31.468Z,99.90
2019-02-17T08:28:02.657Z,99.90
2019-02-17T08:30:34.063Z,99.90
2019-02-17T08:33:24.188Z,99.90
2019-02-17T08:35:55.385Z,99.90
2019-02-17T08:38:26.525Z,99.90
2019-02-17T08:40:57.828Z,99.90
2019-02-17T08:43:28.995Z,99.90
2019-02-17T08:46:00.393Z,99.90
2019-02-17T08:48:31.594Z,99.90
2019-02-17T08:51:02.983Z,99.90
2019-02-17T08:53:34.175Z,99.90
2019-02-17T08:56:05.554Z,99.90
2019-02-17T08:58:36.700Z,99.90
2019-02-17T09:01:07.981Z,99.90
2019-02-17T09:03:39.067Z,99.90
2019-02-17T09:06:10.442Z,99.90
2019-02-17T09:08:41.555Z,99.90
2019-02-17T09:11:13.068Z,99.90
2019-02-17T09:13:44.243Z,99.90
2019-02-17T09:16:15.474Z,99.90
2019-02-17T09:18:46.644Z,99.90
2019-02-17T09:21:17.954Z,99.90
2019-02-17T09:23:50.002Z,99.90
2019-02-17T09:26:21.304Z,99.90
2019-02-17T09:28:52.404Z,99.90
2019-02-17T09:31:35.611Z,99.90
2019-02-17T09:34:06.702Z,99.90
2019-02-17T09:36:37.923Z,99.90
2019-02-17T09:39:10.079Z,99.90
2019-02-17T09:41:41.339Z,99.90
2019-02-17T09:44:12.440Z,99.90
2019-02-17T09:46:43.584Z,99.90
2019-02-17T09:49:14.686Z,99.90
2019-02-17T09:51:45.970Z,99.90
2019-02-17T09:54:18.174Z,99.90
2019-02-17T09:56:49.574Z,99.90
2019-02-17T09:59:22.940Z,99.90
2019-02-17T10:01:54.002Z,99.90
2019-02-17T10:04:25.332Z,99.90
2019-02-17T10:06:56.422Z,99.90
2019-02-17T10:09:27.925Z,99.90
2019-02-17T10:11:59.039Z,99.90
2019-02-17T10:14:30.742Z,99.90
2019-02-17T10:17:01.869Z,99.90
2019-02-17T10:19:33.118Z,99.90
2019-02-17T10:22:04.234Z,99.90
2019-02-17T10:24:35.637Z,99.90
2019-02-17T10:27:06.755Z,99.90
2019-02-17T10:29:38.320Z,99.90
2019-02-17T10:32:09.373Z,99.90
2019-02-17T10:34:40.820Z,99.90
2019-02-17T10:37:11.917Z,99.90
2019-02-17T10:39:43.310Z,99.90
2019-02-17T10:42:15.456Z,99.90
2019-02-17T10:44:46.744Z,99.70
2019-02-17T10:47:17.827Z,99.60
2019-02-17T10:50:00.580Z,99.00
2019-02-17T10:52:31.780Z,99.10
2019-02-17T10:55:03.030Z,98.40
2019-02-17T10:57:34.111Z,98.70
2019-02-17T11:00:08.756Z,98.70
2019-02-17T11:02:46.730Z,98.30
2019-02-17T11:05:13.396Z,98.40
2019-02-17T11:07:44.458Z,95.90
2019-02-17T11:10:15.982Z,93.00
2019-02-17T11:12:47.080Z,91.30
2019-02-17T11:15:19.102Z,87.00
2019-02-17T11:17:50.244Z,79.50
2019-02-17T11:20:21.494Z,79.10
2019-02-17T11:22:52.689Z,66.30
2019-02-17T11:25:23.987Z,61.50
2019-02-17T11:28:14.136Z,57.90
2019-02-17T11:30:45.332Z,55.70
2019-02-17T11:33:16.443Z,55.70
2019-02-17T11:35:47.817Z,54.40
2019-02-17T11:38:18.938Z,51.30
2019-02-17T11:40:50.221Z,48.00
2019-02-17T11:43:21.332Z,48.80
2019-02-17T11:45:52.763Z,48.00
2019-02-17T11:48:23.855Z,49.10
2019-02-17T11:50:55.192Z,47.90
2019-02-17T11:53:26.340Z,46.40
2019-02-17T11:56:09.260Z,46.30
2019-02-17T11:58:40.320Z,46.50
2019-02-17T12:01:11.675Z,44.40
2019-02-17T12:03:42.739Z,43.70
2019-02-17T12:06:14.149Z,43.30
2019-02-17T12:08:48.968Z,43.40
2019-02-17T12:11:20.328Z,43.10
2019-02-17T12:13:51.480Z,42.80
2019-02-17T12:16:22.818Z,43.60
2019-02-17T12:18:53.974Z,41.60
2019-02-17T12:21:59.522Z,41.50
2019-02-17T12:24:47.382Z,39.60
2019-02-17T12:27:26.399Z,38.20
2019-02-17T12:30:02.500Z,39.20
2019-02-17T12:32:33.974Z,41.10
2019-02-17T12:35:05.488Z,38.80
2019-02-17T12:37:36.812Z,37.80
2019-02-17T12:40:11.057Z,37.60
2019-02-17T12:42:42.468Z,36.60
2019-02-17T12:45:18.072Z,36.10
2019-02-17T12:47:57.444Z,37.40
2019-02-17T12:50:20.956Z,35.70
2019-02-17T12:52:52.265Z,37.00
2019-02-17T12:55:23.410Z,37.30
2019-02-17T12:57:54.852Z,37.50
2019-02-17T13:00:25.983Z,36.10
2019-02-17T13:02:57.355Z,35.90
2019-02-17T13:05:28.424Z,35.30
2019-02-17T13:07:59.750Z,36.50
2019-02-17T13:10:30.806Z,35.60
2019-02-17T13:13:02.062Z,36.80
2019-02-17T13:15:33.166Z,34.40
2019-02-17T13:18:04.411Z,36.10
2019-02-17T13:20:54.604Z,35.10
2019-02-17T13:23:25.878Z,34.60
2019-02-17T13:25:59.378Z,35.10
2019-02-17T13:28:42.376Z,36.50
2019-02-17T13:31:13.516Z,36.00
2019-02-17T13:33:46.473Z,36.80
2019-02-17T13:36:17.638Z,37.10
2019-02-17T13:38:49.012Z,38.40
2019-02-17T13:41:20.130Z,39.10
2019-02-17T13:43:51.421Z,39.60
2019-02-17T13:46:22.518Z,38.00
2019-02-17T13:48:53.669Z,37.30
2019-02-17T13:51:24.776Z,36.30
2019-02-17T13:53:55.960Z,38.50
2019-02-17T13:56:27.184Z,36.70
2019-02-17T13:58:58.488Z,35.40
2019-02-17T14:01:29.756Z,35.10
2019-02-17T14:04:00.952Z,35.30
2019-02-17T14:06:32.134Z,35.40
2019-02-17T14:09:04.715Z,32.80
2019-02-17T14:11:37.468Z,32.40
2019-02-17T14:14:08.668Z,32.90
2019-02-17T14:16:39.743Z,32.00
2019-02-17T14:19:10.915Z,32.70
2019-02-17T14:21:42.094Z,32.00
2019-02-17T14:24:13.254Z,33.30
2019-02-17T14:26:45.296Z,31.00
2019-02-17T14:29:16.748Z,31.00
2019-02-17T14:31:47.994Z,32.10
2019-02-17T14:34:19.332Z,31.10
2019-02-17T14:36:50.508Z,29.60
2019-02-17T14:39:21.834Z,29.90
2019-02-17T14:41:52.916Z,30.70
2019-02-17T14:44:24.177Z,29.50
2019-02-17T14:47:02.320Z,29.10
2019-02-17T14:49:33.934Z,30.40
2019-02-17T14:52:05.220Z,30.30
2019-02-17T14:54:36.672Z,29.90
2019-02-17T14:57:07.920Z,30.80
2019-02-17T14:59:39.317Z,29.30
2019-02-17T15:02:10.538Z,29.80
2019-02-17T15:04:41.789Z,30.30
2019-02-17T15:07:12.844Z,32.10
2019-02-17T15:09:44.338Z,30.60
2019-02-17T15:12:15.421Z,32.70
2019-02-17T15:14:46.768Z,32.90
2019-02-17T15:17:17.804Z,31.50
2019-02-17T15:19:49.178Z,32.80
2019-02-17T15:22:20.293Z,32.60
2019-02-17T15:24:51.636Z,31.60
2019-02-17T15:27:22.684Z,34.20
2019-02-17T15:29:53.951Z,32.30
2019-02-17T15:32:26.390Z,33.60
2019-02-17T15:34:57.650Z,32.60
2019-02-17T15:37:28.807Z,35.10
2019-02-17T15:40:00.037Z,34.90
2019-02-17T15:42:31.144Z,34.70
2019-02-17T15:45:02.963Z,33.40
2019-02-17T15:47:34.258Z,33.90
2019-02-17T15:50:06.172Z,34.30
2019-02-17T15:52:38.301Z,33.40
2019-02-17T15:55:09.836Z,33.10
2019-02-17T15:57:41.040Z,34.00
2019-02-17T16:00:13.744Z,34.40
2019-02-17T16:02:44.873Z,34.70
2019-02-17T16:05:16.044Z,35.30
2019-02-17T16:07:47.066Z,34.90
2019-02-17T16:10:18.576Z,35.50
2019-02-17T16:12:49.808Z,34.50
2019-02-17T16:15:21.023Z,34.50
2019-02-17T16:17:52.159Z,34.90
2019-02-17T16:20:23.427Z,35.60
2019-02-17T16:22:54.570Z,36.10
2019-02-17T16:25:25.722Z,36.00
2019-02-17T16:27:56.838Z,36.10
2019-02-17T16:30:28.160Z,36.00
2019-02-17T16:32:59.274Z,37.00
2019-02-17T16:35:30.612Z,38.00
2019-02-17T16:38:01.733Z,38.20
2019-02-17T16:40:33.044Z,39.20
2019-02-17T16:43:04.173Z,40.60
2019-02-17T16:45:35.539Z,40.40
2019-02-17T16:48:06.646Z,42.10
2019-02-17T16:50:37.815Z,43.70
2019-02-17T16:53:08.924Z,45.30
2019-02-17T16:55:40.232Z,47.60
2019-02-17T16:58:11.367Z,48.90
2019-02-17T17:00:42.852Z,51.30
2019-02-17T17:03:14.029Z,53.40
2019-02-17T17:05:45.426Z,54.90
2019-02-17T17:08:16.828Z,56.80
2019-02-17T17:10:48.227Z,57.70
2019-02-17T17:13:19.396Z,58.50
2019-02-17T17:15:50.823Z,60.50
2019-02-17T17:18:21.905Z,63.10
2019-02-17T17:20:53.309Z,66.50
2019-02-17T17:23:24.426Z,68.10
2019-02-17T17:25:55.827Z,70.00
2019-02-17T17:28:27.307Z,71.40
2019-02-17T17:30:58.777Z,73.10
2019-02-17T17:33:30.096Z,74.90
2019-02-17T17:36:01.347Z,76.50
2019-02-17T17:38:32.598Z,79.30
2019-02-17T17:41:04.225Z,81.50
2019-02-17T17:43:35.435Z,84.10
2019-02-17T17:46:06.709Z,85.40
2019-02-17T17:48:38.016Z,87.20
2019-02-17T17:51:09.296Z,89.50
2019-02-17T17:53:41.468Z,90.70
2019-02-17T17:56:12.628Z,91.90
2019-02-17T17:58:43.798Z,92.60
2019-02-17T18:01:15.049Z,93.60
2019-02-17T18:03:46.224Z,94.50
2019-02-17T18:06:17.497Z,95.90
2019-02-17T18:08:48.586Z,96.40
2019-02-17T18:11:19.774Z,97.10
2019-02-17T18:13:50.816Z,97.20
2019-02-17T18:16:22.089Z,98.10
2019-02-17T18:18:53.210Z,98.80
2019-02-17T18:21:24.472Z,99.70
2019-02-17T18:23:55.616Z,99.90
2019-02-17T18:26:27.078Z,99.90
2019-02-17T18:28:58.167Z,99.90
2019-02-17T18:31:29.448Z,99.90
2019-02-17T18:34:00.548Z,99.90
2019-02-17T18:36:32.075Z,99.90
2019-02-17T18:39:03.794Z,99.90
2019-02-17T18:41:35.470Z,99.90
2019-02-17T18:44:06.965Z,99.90
2019-02-17T18:46:38.271Z,99.90
2019-02-17T18:49:09.424Z,99.90
2019-02-17T18:51:41.793Z,99.90
2019-02-17T18:54:13.086Z,99.90
2019-02-17T18:56:44.498Z,99.90
2019-02-17T18:59:15.619Z,99.90
2019-02-17T19:01:47.120Z,99.90
2019-02-17T19:04:18.361Z,99.90
2019-02-17T19:06:49.664Z,99.90
2019-02-17T19:09:20.731Z,99.90
2019-02-17T19:11:52.187Z,99.90
2019-02-17T19:14:23.309Z,99.90
2019-02-17T19:16:54.599Z,99.90
2019-02-17T19:19:25.687Z,99.90
2019-02-17T19:21:59.891Z,99.90
2019-02-17T19:24:31.212Z,99.90
2019-02-17T19:27:02.671Z,99.90
2019-02-17T19:29:33.888Z,99.90
2019-02-17T19:32:05.554Z,99.90
2019-02-17T19:34:36.638Z,99.90
2019-02-17T19:37:08.158Z,99.90
2019-02-17T19:39:39.251Z,99.90
2019-02-17T19:42:10.730Z,99.90
2019-02-17T19:44:41.994Z,99.90
2019-02-17T19:47:13.243Z,99.90
2019-02-17T19:49:44.362Z,99.90
2019-02-17T19:52:15.714Z,99.90
2019-02-17T19:54:47.016Z,99.90
2019-02-17T19:57:18.511Z,99.90
2019-02-17T19:59:49.614Z,99.90
2019-02-17T20:02:27.572Z,99.90
2019-02-17T20:05:19.132Z,99.90
2019-02-17T20:07:52.829Z,99.90
2019-02-17T20:10:23.832Z,99.90
2019-02-17T20:12:55.053Z,99.90
2019-02-17T20:15:29.336Z,99.90
2019-02-17T20:18:00.896Z,99.90
2019-02-17T20:20:32.226Z,99.90
2019-02-17T20:23:03.548Z,99.90
2019-02-17T20:25:34.776Z,99.90
2019-02-17T20:28:06.262Z,99.90
2019-02-17T20:30:37.468Z,99.90
2019-02-17T20:33:08.850Z,99.90
2019-02-17T20:35:40.023Z,99.90
2019-02-17T20:38:11.240Z,99.90
2019-02-17T20:40:42.664Z,99.90
2019-02-17T20:43:14.158Z,99.90
2019-02-17T20:45:45.259Z,99.90
2019-02-17T20:48:16.722Z,99.90
2019-02-17T20:50:47.873Z,99.90
2019-02-17T20:53:19.150Z,99.90
2019-02-17T20:55:50.538Z,99.90
2019-02-17T20:58:22.478Z,99.90
2019-02-17T21:01:15.716Z,99.90
2019-02-17T21:03:59.436Z,99.90
2019-02-17T21:06:32.656Z,99.90
2019-02-17T21:09:05.243Z,99.90
2019-02-17T21:11:38.325Z,99.90
2019-02-17T21:14:10.260Z,99.90
2019-02-17T21:16:42.124Z,99.90
2019-02-17T21:19:16.456Z,99.90
2019-02-17T21:21:56.122Z,99.90
2019-02-17T21:24:28.407Z,99.90
2019-02-17T21:27:01.208Z,99.90
2019-02-17T21:29:32.677Z,99.90
2019-02-17T21:32:03.853Z,99.90
2019-02-17T21:34:35.358Z,99.90
2019-02-17T21:37:06.555Z,99.90
2019-02-17T21:39:37.824Z,99.90
2019-02-17T21:42:09.053Z,99.90
2019-02-17T21:44:40.635Z,99.90
2019-02-17T21:47:11.788Z,99.90
2019-02-17T21:49:43.105Z,99.90
2019-02-17T21:52:14.205Z,99.90
2019-02-17T21:54:46.258Z,99.90
2019-02-17T21:57:17.470Z,99.90
2019-02-17T21:59:48.822Z,99.90
2019-02-17T22:02:20.026Z,99.90
2019-02-17T22:04:51.334Z,99.90
2019-02-17T22:07:22.538Z,99.90
2019-02-17T22:09:53.906Z,99.90
2019-02-17T22:12:25.108Z,99.90
2019-02-17T22:14:56.508Z,99.90
2019-02-17T22:17:27.616Z,99.90
2019-02-17T22:19:59.084Z,99.90
2019-02-17T22:22:30.187Z,99.90
2019-02-17T22:25:02.815Z,99.90
2019-02-17T22:27:35.152Z,99.90
2019-02-17T22:30:07.848Z,99.90
2019-02-17T22:32:39.060Z,99.90
2019-02-17T22:35:10.655Z,99.90
2019-02-17T22:37:41.764Z,99.90
2019-02-17T22:40:13.174Z,99.90
2019-02-17T22:42:44.444Z,99.90
2019-02-17T22:45:15.974Z,99.90
2019-02-17T22:47:47.118Z,99.90
2019-02-17T22:50:18.457Z,99.90
2019-02-17T22:52:49.637Z,99.90
2019-02-17T22:55:21.054Z,99.90
2019-02-17T22:57:52.164Z,99.90
2019-02-17T23:01:02.050Z,99.90
2019-02-17T23:03:34.758Z,99.90
2019-02-17T23:06:06.197Z,99.90
2019-02-17T23:08:37.394Z,99.90
2019-02-17T23:11:08.778Z,99.90
2019-02-17T23:13:39.940Z,99.90
2019-02-17T23:16:11.680Z,99.90
2019-02-17T23:18:44.566Z,99.90
2019-02-17T23:21:16.117Z,99.90
2019-02-17T23:23:47.152Z,99.90
2019-02-17T23:26:18.613Z,99.90
2019-02-17T23:28:49.788Z,99.90
2019-02-17T23:31:21.116Z,99.90
2019-02-17T23:33:52.200Z,99.90
2019-02-17T23:36:24.520Z,99.90
2019-02-17T23:38:55.574Z,99.90
2019-02-17T23:41:26.910Z,99.90
2019-02-17T23:43:57.984Z,99.90
2019-02-17T23:46:29.304Z,99.90
2019-02-17T23:49:00.372Z,99.90
2019-02-17T23:51:43.122Z,99.90
2019-02-17T23:54:14.204Z,99.90
2019-02-17T23:56:45.426Z,99.90
2019-02-17T23:59:16.550Z,99.90
